Time;durP1;ratioP1;P1;durP2;ratioP2;P2;SDS_P1;SDS_P2;PMS_P1;PMS_P2;Temp;Humidity;BMP_temperature;BMP_pressure;BME280_temperature;BME280_humidity;BME280_pressure;Samples;Min_cycle;Max_cycle;Signal;HPM_P1;HPM_P2
2022/01/03 00:01:07;;;;;;;;;;;;;;;;;;4220158;28;1909;-62
2022/01/03 00:03:27;;;;;;;;;;;;;;;;;;4219839;28;1105;-62
2022/01/03 00:05:47;;;;;;;;;;;;;;;;;;4219898;28;858;-62
2022/01/03 00:08:08;;;;;;;;;;;;;;;;;;4217986;28;1044;-62
2022/01/03 00:10:28;;;;;;;;;;;;;;;;;;4219699;28;1146;-63
2022/01/03 00:12:49;;;;;;;;;;;;;;;;;;4220109;28;976;-62
2022/01/03 00:15:09;;;;;;;;;;;;;;;;;;4220013;28;1319;-62
2022/01/03 00:17:30;;;;;;;;;;;;;;;;;;4219124;28;2114;-63
2022/01/03 00:19:50;;;;;;;;;;;;;;;;;;4219579;28;1031;-62
2022/01/03 00:22:10;;;;;;;;;;;;;;;;;;4219478;28;1901;-62
2022/01/03 00:24:30;;;;;;;;;;;;;;;;;;4220066;28;1102;-62
2022/01/03 00:26:51;;;;;;;;;;;;;;;;;;4219807;28;1023;-62
2022/01/03 00:29:11;;;;;;;;;;;;;;;;;;4218550;28;1117;-62
2022/01/03 00:31:31;;;;;;;;;;;;;;;;;;4219048;28;859;-61
2022/01/03 00:33:52;;;;;;;;;;;;;;;;;;4219732;28;1618;-62
2022/01/03 00:36:12;;;;;;;;;;;;;;;;;;4219455;28;1070;-62
2022/01/03 00:38:33;;;;;;;;;;;;;;;;;;4219689;28;981;-62
2022/01/03 00:40:53;;;;;;;;;;;;;;;;;;4218724;28;1124;-62
2022/01/03 00:43:13;;;;;;;;;;;;;;;;;;4219308;28;1910;-62
2022/01/03 00:45:34;;;;;;;;;;;;;;;;;;4219781;28;1106;-62
2022/01/03 00:47:54;;;;;;;;;;;;;;;;;;4218602;28;1039;-62
2022/01/03 00:50:15;;;;;;;;;;;;;;;;;;4219085;28;962;-62
2022/01/03 00:52:36;;;;;;;;;;;;;;;;;;4219627;28;1095;-62
2022/01/03 00:54:56;;;;;;;;;;;;;;;;;;4219432;28;1090;-62
2022/01/03 00:57:19;;;;;;;;;;;;;;;;;;4220270;28;1091;-61
2022/01/03 00:59:40;;;;;;;;;;;;;;;;;;4221212;28;984;-62
2022/01/03 01:02:01;;;;;;;;;;;;;;;;;;4220919;28;1913;-62
2022/01/03 01:04:21;;;;;;;;;;;;;;;;;;4222211;28;2223;-62
2022/01/03 01:06:47;;;;;;;;;;;;;;;;;;4219275;28;1180;-62
2022/01/03 01:09:07;;;;;;;;;;;;;;;;;;4205649;28;910;-62
2022/01/03 01:11:28;;;;;;;;;;;;;;;;;;4205577;28;1149;-62
2022/01/03 01:13:49;;;;;;;;;;;;;;;;;;4205682;28;1091;-62
2022/01/03 01:16:10;;;;;;;;;;;;;;;;;;4204426;28;980;-62
2022/01/03 01:18:37;;;;;;;;;;;;;;;;;;4204404;28;888;-62
2022/01/03 01:20:58;;;;;;;;;;;;;;;;;;4220668;28;1155;-62
2022/01/03 01:23:20;;;;;;;;;;;;;;;;;;4220805;28;1909;-62
2022/01/03 01:28:18;;;;;;;;;;;;;;;;;;4221137;28;870;-62
2022/01/03 01:30:39;;;;;;;;;;;;;;;;;;4220855;28;1072;-62
2022/01/03 01:32:59;;;;;;;;;;;;;;;;;;4220656;28;947;-62
2022/01/03 01:35:20;;;;;;;;;;;;;;;;;;4220484;28;1414;-62
2022/01/03 01:37:40;;;;;;;;;;;;;;;;;;4220512;28;1154;-62
2022/01/03 01:40:01;;;;;;;;;;;;;;;;;;4221576;28;1207;-62
2022/01/03 01:42:22;;;;;;;;;;;;;;;;;;4220464;28;1987;-63
2022/01/03 01:44:46;;;;;;;;;;;;;;;;;;4203962;28;1195;-63
2022/01/03 01:47:07;;;;;;;;;;;;;;;;;;4206228;28;1863;-61
2022/01/03 01:49:28;;;;;;;;;;;;;;;;;;4220271;28;996;-62
2022/01/03 01:51:53;;;;;;;;;;;;;;;;;;4220396;28;1158;-62
2022/01/03 01:54:14;;;;;;;;;;;;;;;;;;4220332;28;1206;-61
2022/01/03 01:56:34;;;;;;;;;;;;;;;;;;4220768;28;830;-62
2022/01/03 01:58:55;;;;;;;;;;;;;;;;;;4219786;28;946;-61
2022/01/03 02:04:03;;;;;;;;;;;;;;;;;;4216996;28;2113;-62
2022/01/03 02:06:27;;;;;;;;;;;;;;;;;;4202676;28;999;-62
2022/01/03 02:08:48;;;;;;;;;;;;;;;;;;4213679;28;1868;-62
2022/01/03 02:11:09;;;;;;;;;;;;;;;;;;4219685;28;1048;-62
2022/01/03 02:13:29;;;;;;;;;;;;;;;;;;4219018;28;1161;-62
2022/01/03 02:15:58;;;;;;;;;;;;;;;;;;4220558;28;930;-61
2022/01/03 02:18:18;;;;;;;;;;;;;;;;;;4220393;28;1404;-62
2022/01/03 02:20:40;;;;;;;;;;;;;;;;;;4204858;28;1321;-62
2022/01/03 02:23:03;;;;;;;;;;;;;;;;;;4204586;28;1990;-62
2022/01/03 02:25:27;;;;;;;;;;;;;;;;;;4204982;28;1133;-62
2022/01/03 02:27:48;;;;;;;;;;;;;;;;;;4204936;28;1486;-62
2022/01/03 02:30:08;;;;;;;;;;;;;;;;;;4204601;28;1607;-62
2022/01/03 02:32:29;;;;;;;;;;;;;;;;;;4205262;28;952;-62
2022/01/03 02:34:49;;;;;;;;;;;;;;;;;;4204485;28;1685;-62
2022/01/03 02:37:17;;;;;;;;;;;;;;;;;;4204654;28;998;-62
2022/01/03 02:39:38;;;;;;;;;;;;;;;;;;4204840;28;1100;-62
2022/01/03 02:41:58;;;;;;;;;;;;;;;;;;4204852;28;1014;-61
2022/01/03 02:44:19;;;;;;;;;;;;;;;;;;4205394;28;902;-62
2022/01/03 02:46:39;;;;;;;;;;;;;;;;;;4221677;28;1104;-63
2022/01/03 02:49:03;;;;;;;;;;;;;;;;;;4207239;28;1016;-62
2022/01/03 02:51:23;;;;;;;;;;;;;;;;;;4222030;28;1087;-62
2022/01/03 02:53:44;;;;;;;;;;;;;;;;;;4207011;28;1023;-62
2022/01/03 02:56:04;;;;;;;;;;;;;;;;;;4206709;28;996;-61
2022/01/03 02:58:24;;;;;;;;;;;;;;;;;;4206729;28;954;-61
2022/01/03 03:00:47;;;;;;;;;;;;;;;;;;4222181;28;822;-62
2022/01/03 03:03:12;;;;;;;;;;;;;;;;;;4206514;28;1909;-62
2022/01/03 03:05:33;;;;;;;;;;;;;;;;;;4206706;28;1356;-62
2022/01/03 03:07:54;;;;;;;;;;;;;;;;;;4222290;28;925;-62
2022/01/03 03:10:15;;;;;;;;;;;;;;;;;;4206564;28;956;-62
2022/01/03 03:12:35;;;;;;;;;;;;;;;;;;4221682;28;1282;-62
2022/01/03 03:14:55;;;;;;;;;;;;;;;;;;4221857;28;990;-62
2022/01/03 03:17:18;;;;;;;;;;;;;;;;;;4211281;28;1275;-62
2022/01/03 03:19:39;;;;;;;;;;;;;;;;;;4221660;28;1032;-61
2022/01/03 03:22:00;;;;;;;;;;;;;;;;;;4220750;28;1203;-62
2022/01/03 03:24:20;;;;;;;;;;;;;;;;;;4220719;28;937;-62
2022/01/03 03:26:41;;;;;;;;;;;;;;;;;;4220912;28;857;-62
2022/01/03 03:29:01;;;;;;;;;;;;;;;;;;4220780;28;842;-61
2022/01/03 03:31:23;;;;;;;;;;;;;;;;;;4220693;28;1088;-62
2022/01/03 03:33:44;;;;;;;;;;;;;;;;;;4221771;28;942;-61
2022/01/03 03:36:05;;;;;;;;;;;;;;;;;;4220299;28;1156;-61
2022/01/03 03:38:25;;;;;;;;;;;;;;;;;;4220400;28;1140;-61
2022/01/03 03:40:47;;;;;;;;;;;;;;;;;;4220719;28;1226;-62
2022/01/03 03:43:09;;;;;;;;;;;;;;;;;;4221354;28;1913;-62
2022/01/03 03:45:31;;;;;;;;;;;;;;;;;;4220809;28;914;-62
2022/01/03 03:47:51;;;;;;;;;;;;;;;;;;4220788;28;1262;-61
2022/01/03 03:50:12;;;;;;;;;;;;;;;;;;4220507;28;1079;-62
2022/01/03 03:52:32;;;;;;;;;;;;;;;;;;4221790;28;821;-61
2022/01/03 03:54:53;;;;;;;;;;;;;;;;;;4220369;28;1124;-61
2022/01/03 03:57:15;;;;;;;;;;;;;;;;;;4220437;28;1043;-61
2022/01/03 03:59:35;;;;;;;;;;;;;;;;;;4221646;28;945;-61
2022/01/03 04:01:57;;;;;;;;;;;;;;;;;;4220239;28;1207;-61
2022/01/03 04:04:18;;;;;;;;;;;;;;;;;;4220360;28;1906;-62
2022/01/03 04:06:38;;;;;;;;;;;;;;;;;;4219945;28;964;-62
2022/01/03 04:08:59;;;;;;;;;;;;;;;;;;4220242;28;1095;-61
2022/01/03 04:11:20;;;;;;;;;;;;;;;;;;4220165;28;1253;-62
2022/01/03 04:13:40;;;;;;;;;;;;;;;;;;4220099;28;1284;-61
2022/01/03 04:16:01;;;;;;;;;;;;;;;;;;4219938;28;1061;-61
2022/01/03 04:18:23;;;;;;;;;;;;;;;;;;4220454;28;883;-62
2022/01/03 04:20:43;;;;;;;;;;;;;;;;;;4220393;28;1027;-62
2022/01/03 04:23:03;;;;;;;;;;;;;;;;;;4220113;28;1913;-61
2022/01/03 04:25:24;;;;;;;;;;;;;;;;;;4220132;28;1000;-62
2022/01/03 04:27:44;;;;;;;;;;;;;;;;;;4221267;28;988;-61
2022/01/03 04:30:05;;;;;;;;;;;;;;;;;;4205407;28;1027;-61
2022/01/03 04:32:25;;;;;;;;;;;;;;;;;;4221353;28;968;-61
2022/01/03 04:34:45;;;;;;;;;;;;;;;;;;4224056;28;980;-61
2022/01/03 04:37:06;;;;;;;;;;;;;;;;;;4222764;28;1376;-61
2022/01/03 04:39:27;;;;;;;;;;;;;;;;;;4222885;28;973;-61
2022/01/03 04:41:47;;;;;;;;;;;;;;;;;;4222775;28;1116;-61
2022/01/03 04:44:07;;;;;;;;;;;;;;;;;;4223993;28;1902;-62
2022/01/03 04:46:28;;;;;;;;;;;;;;;;;;4222942;28;1077;-61
2022/01/03 04:48:49;;;;;;;;;;;;;;;;;;4222786;28;1012;-61
2022/01/03 04:51:09;;;;;;;;;;;;;;;;;;4223935;28;1398;-62
2022/01/03 04:53:30;;;;;;;;;;;;;;;;;;4222960;28;1202;-62
2022/01/03 04:55:50;;;;;;;;;;;;;;;;;;4214072;28;2474;-61
2022/01/03 04:58:11;;;;;;;;;;;;;;;;;;4220357;28;1464;-61
2022/01/03 05:00:32;;;;;;;;;;;;;;;;;;4222300;28;1422;-62
2022/01/03 05:02:53;;;;;;;;;;;;;;;;;;4222306;28;1217;-61
2022/01/03 05:05:14;;;;;;;;;;;;;;;;;;4222217;28;1116;-61
2022/01/03 05:07:35;;;;;;;;;;;;;;;;;;4222089;28;967;-62
2022/01/03 05:09:55;;;;;;;;;;;;;;;;;;4222063;28;1156;-61
2022/01/03 05:12:16;;;;;;;;;;;;;;;;;;4222102;28;1032;-60
2022/01/03 05:14:37;;;;;;;;;;;;;;;;;;4222017;28;1164;-61
2022/01/03 05:16:57;;;;;;;;;;;;;;;;;;4222314;28;1111;-60
2022/01/03 05:19:18;;;;;;;;;;;;;;;;;;4222312;28;1171;-60
2022/01/03 05:21:39;;;;;;;;;;;;;;;;;;4221731;28;1066;-61
2022/01/03 05:23:59;;;;;;;;;;;;;;;;;;4221997;28;1905;-60
2022/01/03 05:26:19;;;;;;;;;;;;;;;;;;4205285;28;1053;-60
2022/01/03 05:28:40;;;;;;;;;;;;;;;;;;4213987;28;1224;-60
2022/01/03 05:31:01;;;;;;;;;;;;;;;;;;4222042;28;966;-62
2022/01/03 05:33:21;;;;;;;;;;;;;;;;;;4222260;28;974;-60
2022/01/03 05:35:42;;;;;;;;;;;;;;;;;;4222144;28;1208;-61
2022/01/03 05:38:03;;;;;;;;;;;;;;;;;;4222005;28;1071;-61
2022/01/03 05:40:24;;;;;;;;;;;;;;;;;;4221980;28;964;-60
2022/01/03 05:42:46;;;;;;;;;;;;;;;;;;4222551;28;957;-60
2022/01/03 05:45:07;;;;;;;;;;;;;;;;;;4221238;28;1982;-60
2022/01/03 05:47:27;;;;;;;;;;;;;;;;;;4223349;28;954;-60
2022/01/03 05:49:48;;;;;;;;;;;;;;;;;;4222425;28;950;-60
2022/01/03 05:52:08;;;;;;;;;;;;;;;;;;4221883;28;1060;-60
2022/01/03 05:54:29;;;;;;;;;;;;;;;;;;4223164;28;832;-60
2022/01/03 05:56:49;;;;;;;;;;;;;;;;;;4221865;28;987;-60
2022/01/03 05:59:10;;;;;;;;;;;;;;;;;;4221924;28;972;-60
2022/01/03 06:01:32;;;;;;;;;;;;;;;;;;4221670;28;914;-60
2022/01/03 06:03:59;;;;;;;;;;;;;;;;;;4221651;28;1984;-61
2022/01/03 06:06:31;;;;;;;;;;;;;;;;;;4222936;28;1092;-60
2022/01/03 06:08:52;;;;;;;;;;;;;;;;;;4221670;28;1302;-61
2022/01/03 06:11:12;;;;;;;;;;;;;;;;;;4221951;28;1389;-60
2022/01/03 06:13:32;;;;;;;;;;;;;;;;;;4222659;28;1022;-60
2022/01/03 06:15:53;;;;;;;;;;;;;;;;;;4221917;28;970;-60
2022/01/03 06:18:15;;;;;;;;;;;;;;;;;;4221401;28;1877;-60
2022/01/03 06:20:38;;;;;;;;;;;;;;;;;;4221422;28;1049;-61
2022/01/03 06:22:58;;;;;;;;;;;;;;;;;;4222766;28;1048;-60
2022/01/03 06:25:19;;;;;;;;;;;;;;;;;;4221770;28;1883;-60
2022/01/03 06:27:40;;;;;;;;;;;;;;;;;;4221800;28;1007;-60
2022/01/03 06:30:01;;;;;;;;;;;;;;;;;;4221359;28;1076;-61
2022/01/03 06:32:21;;;;;;;;;;;;;;;;;;4221299;28;1112;-60
2022/01/03 06:34:42;;;;;;;;;;;;;;;;;;4221406;28;1105;-60
2022/01/03 06:37:02;;;;;;;;;;;;;;;;;;4221706;28;855;-61
2022/01/03 06:39:28;;;;;;;;;;;;;;;;;;4221741;28;1316;-60
2022/01/03 06:41:48;;;;;;;;;;;;;;;;;;4221686;28;1033;-60
2022/01/03 06:44:10;;;;;;;;;;;;;;;;;;4214327;28;3140;-61
2022/01/03 06:46:31;;;;;;;;;;;;;;;;;;4203588;28;1518;-61
2022/01/03 06:48:51;;;;;;;;;;;;;;;;;;4217157;28;1005;-61
2022/01/03 06:51:12;;;;;;;;;;;;;;;;;;4220485;28;1155;-61
2022/01/03 06:53:33;;;;;;;;;;;;;;;;;;4214875;28;3149;-61
2022/01/03 06:55:53;;;;;;;;;;;;;;;;;;4214613;28;1525;-61
2022/01/03 06:58:13;;;;;;;;;;;;;;;;;;4218069;28;1483;-61
2022/01/03 07:00:34;;;;;;;;;;;;;;;;;;4218890;28;1916;-62
2022/01/03 07:02:54;;;;;;;;;;;;;;;;;;4220681;28;1751;-62
2022/01/03 07:05:15;;;;;;;;;;;;;;;;;;4217483;28;1905;-62
2022/01/03 07:07:35;;;;;;;;;;;;;;;;;;4218521;28;1561;-61
2022/01/03 07:09:56;;;;;;;;;;;;;;;;;;4220069;28;1202;-61
2022/01/03 07:12:16;;;;;;;;;;;;;;;;;;4216292;28;1517;-61
2022/01/03 07:19:53;;;;;;;;;;;;;;;;;;4221961;28;1407;-62
2022/01/03 07:22:13;;;;;;;;;;;;;;;;;;4206227;28;1477;-61
2022/01/03 07:24:33;;;;;;;;;;;;;;;;;;4204571;28;2472;-61
2022/01/03 07:26:53;;;;;;;;;;;;;;;;;;4211127;28;897;-62
2022/01/03 07:29:14;;;;;;;;;;;;;;;;;;4221607;28;1085;-61
2022/01/03 07:31:34;;;;;;;;;;;;;;;;;;4221253;28;1197;-62
2022/01/03 07:33:55;;;;;;;;;;;;;;;;;;4234213;28;1456;-62
2022/01/03 07:36:15;;;;;;;;;;;;;;;;;;4214606;28;2970;-62
2022/01/03 07:38:36;;;;;;;;;;;;;;;;;;4213141;28;1289;-62
2022/01/03 07:40:57;;;;;;;;;;;;;;;;;;4207639;28;3101;-62
2022/01/03 07:43:17;;;;;;;;;;;;;;;;;;4214172;28;2552;-62
2022/01/03 07:45:38;;;;;;;;;;;;;;;;;;4214254;28;2032;-62
2022/01/03 07:47:58;;;;;;;;;;;;;;;;;;4211836;28;1010;-63
2022/01/03 07:50:18;;;;;;;;;;;;;;;;;;4211276;28;1829;-63
2022/01/03 07:52:38;;;;;;;;;;;;;;;;;;4221235;28;1004;-62
2022/01/03 07:54:58;;;;;;;;;;;;;;;;;;4220977;28;925;-62
2022/01/03 07:57:19;;;;;;;;;;;;;;;;;;4221073;28;1380;-62
2022/01/03 07:59:39;;;;;;;;;;;;;;;;;;4222860;28;873;-62
2022/01/03 08:02:00;;;;;;;;;;;;;;;;;;4204564;28;1050;-63
2022/01/03 08:04:21;;;;;;;;;;;;;;;;;;4207399;28;2592;-62
2022/01/03 08:06:42;;;;;;;;;;;;;;;;;;4204214;28;1182;-62
2022/01/03 08:09:02;;;;;;;;;;;;;;;;;;4207104;28;949;-62
2022/01/03 08:11:22;;;;;;;;;;;;;;;;;;4206845;28;1075;-62
2022/01/03 08:13:42;;;;;;;;;;;;;;;;;;4207327;28;947;-62
2022/01/03 08:16:03;;;;;;;;;;;;;;;;;;4207292;28;1253;-62
2022/01/03 08:18:23;;;;;;;;;;;;;;;;;;4190229;28;1146;-62
2022/01/03 08:20:43;;;;;;;;;;;;;;;;;;4190511;28;983;-62
2022/01/03 08:23:04;;;;;;;;;;;;;;;;;;4192625;28;1156;-63
2022/01/03 08:25:24;;;;;;;;;;;;;;;;;;4190161;28;1906;-62
2022/01/03 08:27:44;;;;;;;;;;;;;;;;;;4190364;28;1018;-62
2022/01/03 08:30:04;;;;;;;;;;;;;;;;;;4190009;28;983;-62
2022/01/03 08:32:25;;;;;;;;;;;;;;;;;;4188348;28;2221;-64
2022/01/03 08:34:45;;;;;;;;;;;;;;;;;;4172205;28;1046;-62
2022/01/03 08:37:05;;;;;;;;;;;;;;;;;;4189979;28;1380;-62
2022/01/03 08:39:26;;;;;;;;;;;;;;;;;;4197610;28;1121;-62
2022/01/03 08:41:46;;;;;;;;;;;;;;;;;;4206521;28;1043;-62
2022/01/03 08:44:06;;;;;;;;;;;;;;;;;;4191609;28;1370;-62
2022/01/03 08:46:27;;;;;;;;;;;;;;;;;;4206454;28;1047;-63
2022/01/03 08:48:47;;;;;;;;;;;;;;;;;;4206321;28;1141;-62
2022/01/03 08:51:08;;;;;;;;;;;;;;;;;;4206169;28;1220;-62
2022/01/03 08:53:28;;;;;;;;;;;;;;;;;;4206114;28;1263;-62
2022/01/03 08:55:48;;;;;;;;;;;;;;;;;;4205488;28;966;-62
2022/01/03 08:58:08;;;;;;;;;;;;;;;;;;4206215;28;992;-62
2022/01/03 09:00:28;;;;;;;;;;;;;;;;;;4206549;28;1414;-62
2022/01/03 09:02:48;;;;;;;;;;;;;;;;;;4206203;28;1385;-62
2022/01/03 09:05:09;;;;;;;;;;;;;;;;;;4202239;28;1989;-62
2022/01/03 09:07:29;;;;;;;;;;;;;;;;;;4206342;28;1117;-62
2022/01/03 09:09:49;;;;;;;;;;;;;;;;;;4206225;28;1190;-62
2022/01/03 09:12:09;;;;;;;;;;;;;;;;;;4206357;28;1011;-62
2022/01/03 09:14:30;;;;;;;;;;;;;;;;;;4205292;28;1683;-62
2022/01/03 09:16:50;;;;;;;;;;;;;;;;;;4209758;28;1595;-62
2022/01/03 09:19:10;;;;;;;;;;;;;;;;;;4222533;28;939;-62
2022/01/03 09:21:31;;;;;;;;;;;;;;;;;;4222850;28;946;-62
2022/01/03 09:24:04;;;;;;;;;;;;;;;;;;4223080;28;1052;-62
2022/01/03 09:29:03;;;;;;;;;;;;;;;;;;4222577;28;1382;-62
2022/01/03 09:31:24;;;;;;;;;;;;;;;;;;4222650;28;944;-62
2022/01/03 09:33:44;;;;;;;;;;;;;;;;;;4222805;28;1212;-62
2022/01/03 09:36:04;;;;;;;;;;;;;;;;;;4222601;28;937;-61
2022/01/03 09:38:24;;;;;;;;;;;;;;;;;;4222490;28;1207;-62
2022/01/03 09:40:45;;;;;;;;;;;;;;;;;;4222723;28;1229;-62
2022/01/03 09:43:05;;;;;;;;;;;;;;;;;;4222177;28;1072;-62
2022/01/03 09:45:26;;;;;;;;;;;;;;;;;;4205312;28;1977;-62
2022/01/03 09:47:47;;;;;;;;;;;;;;;;;;4205833;28;1130;-62
2022/01/03 09:50:07;;;;;;;;;;;;;;;;;;4206019;28;939;-63
2022/01/03 09:52:28;;;;;;;;;;;;;;;;;;4203787;28;1188;-62
2022/01/03 09:54:48;;;;;;;;;;;;;;;;;;4222716;28;1721;-62
2022/01/03 09:57:08;;;;;;;;;;;;;;;;;;4222535;28;981;-62
2022/01/03 09:59:29;;;;;;;;;;;;;;;;;;4221921;28;980;-62
2022/01/03 10:01:49;;;;;;;;;;;;;;;;;;4222512;28;1016;-62
2022/01/03 10:04:10;;;;;;;;;;;;;;;;;;4215741;28;1278;-62
2022/01/03 10:06:31;;;;;;;;;;;;;;;;;;4221622;28;1968;-63
2022/01/03 10:08:51;;;;;;;;;;;;;;;;;;4222315;28;1126;-62
2022/01/03 10:11:11;;;;;;;;;;;;;;;;;;4222272;28;1117;-62
2022/01/03 10:13:32;;;;;;;;;;;;;;;;;;4222109;28;1027;-62
2022/01/03 10:15:52;;;;;;;;;;;;;;;;;;4222458;28;1097;-62
2022/01/03 10:18:12;;;;;;;;;;;;;;;;;;4222486;28;1114;-62
2022/01/03 10:20:34;;;;;;;;;;;;;;;;;;4221944;28;1038;-63
2022/01/03 10:22:54;;;;;;;;;;;;;;;;;;4221654;28;1027;-62
2022/01/03 10:25:15;;;;;;;;;;;;;;;;;;4222417;28;1913;-62
2022/01/03 10:27:35;;;;;;;;;;;;;;;;;;4222466;28;881;-62
2022/01/03 10:29:56;;;;;;;;;;;;;;;;;;4220866;28;1228;-62
2022/01/03 10:32:16;;;;;;;;;;;;;;;;;;4222502;28;1073;-62
2022/01/03 10:34:37;;;;;;;;;;;;;;;;;;4222115;28;1101;-62
2022/01/03 10:36:57;;;;;;;;;;;;;;;;;;4219596;28;1475;-62
2022/01/03 10:39:17;;;;;;;;;;;;;;;;;;4219962;28;1688;-62
2022/01/03 10:41:38;;;;;;;;;;;;;;;;;;4220391;28;1033;-62
2022/01/03 10:43:58;;;;;;;;;;;;;;;;;;4219956;28;1584;-63
2022/01/03 10:46:19;;;;;;;;;;;;;;;;;;4219249;28;1917;-62
2022/01/03 10:48:39;;;;;;;;;;;;;;;;;;4219924;28;916;-62
2022/01/03 10:51:00;;;;;;;;;;;;;;;;;;4219737;28;993;-62
2022/01/03 10:53:20;;;;;;;;;;;;;;;;;;4203338;28;1094;-62
2022/01/03 10:55:41;;;;;;;;;;;;;;;;;;4214843;28;1682;-62
2022/01/03 10:58:01;;;;;;;;;;;;;;;;;;4218756;28;993;-63
2022/01/03 11:00:22;;;;;;;;;;;;;;;;;;4214181;28;1110;-62
2022/01/03 11:02:42;;;;;;;;;;;;;;;;;;4203275;28;1058;-63
2022/01/03 11:05:09;;;;;;;;;;;;;;;;;;4203425;28;1029;-63
2022/01/03 11:12:46;;;;;;;;;;;;;;;;;;4219807;28;900;-62
2022/01/03 11:15:06;;;;;;;;;;;;;;;;;;4209708;28;1013;-63
2022/01/03 11:17:26;;;;;;;;;;;;;;;;;;4203102;28;1205;-63
2022/01/03 11:19:47;;;;;;;;;;;;;;;;;;4203285;28;868;-63
2022/01/03 11:22:07;;;;;;;;;;;;;;;;;;4203048;28;1210;-63
2022/01/03 11:24:27;;;;;;;;;;;;;;;;;;4187277;28;978;-62
2022/01/03 11:26:48;;;;;;;;;;;;;;;;;;4202514;28;1917;-62
2022/01/03 11:29:09;;;;;;;;;;;;;;;;;;4203118;28;1098;-63
2022/01/03 11:31:29;;;;;;;;;;;;;;;;;;4208437;28;2096;-62
2022/01/03 11:33:49;;;;;;;;;;;;;;;;;;4219943;28;1018;-62
2022/01/03 11:36:09;;;;;;;;;;;;;;;;;;4219204;28;1187;-63
2022/01/03 11:38:30;;;;;;;;;;;;;;;;;;4219367;28;978;-62
2022/01/03 11:40:50;;;;;;;;;;;;;;;;;;4219506;28;926;-62
2022/01/03 11:43:10;;;;;;;;;;;;;;;;;;4219275;28;957;-63
2022/01/03 11:45:31;;;;;;;;;;;;;;;;;;4219581;28;1913;-62
2022/01/03 11:47:51;;;;;;;;;;;;;;;;;;4219157;28;1234;-62
2022/01/03 11:50:11;;;;;;;;;;;;;;;;;;4220016;28;992;-63
2022/01/03 11:52:33;;;;;;;;;;;;;;;;;;4219594;28;1035;-62
2022/01/03 11:54:53;;;;;;;;;;;;;;;;;;4219172;28;1173;-62
2022/01/03 11:57:19;;;;;;;;;;;;;;;;;;4216765;28;986;-63
2022/01/03 12:04:52;;;;;;;;;;;;;;;;;;4204433;28;1073;-62
2022/01/03 12:07:12;;;;;;;;;;;;;;;;;;4219308;28;1905;-63
2022/01/03 12:09:32;;;;;;;;;;;;;;;;;;4219702;28;916;-63
2022/01/03 12:11:53;;;;;;;;;;;;;;;;;;4219485;28;893;-62
2022/01/03 12:14:14;;;;;;;;;;;;;;;;;;4218806;28;968;-63
2022/01/03 12:16:34;;;;;;;;;;;;;;;;;;4218328;28;1100;-62
2022/01/03 12:18:54;;;;;;;;;;;;;;;;;;4218773;28;1116;-63
2022/01/03 12:21:14;;;;;;;;;;;;;;;;;;4219207;28;1193;-63
2022/01/03 12:23:35;;;;;;;;;;;;;;;;;;4215977;28;1298;-62
2022/01/03 12:25:55;;;;;;;;;;;;;;;;;;4218838;28;1894;-62
2022/01/03 12:28:17;;;;;;;;;;;;;;;;;;4219245;28;1126;-63
2022/01/03 12:30:38;;;;;;;;;;;;;;;;;;4219178;28;906;-62
2022/01/03 12:32:58;;;;;;;;;;;;;;;;;;4219480;28;1415;-63
2022/01/03 12:35:20;;;;;;;;;;;;;;;;;;4219097;28;1127;-63
2022/01/03 12:37:42;;;;;;;;;;;;;;;;;;4218294;28;1087;-63
2022/01/03 12:40:02;;;;;;;;;;;;;;;;;;4217758;28;1274;-63
2022/01/03 12:42:22;;;;;;;;;;;;;;;;;;4215759;28;1387;-62
2022/01/03 12:44:43;;;;;;;;;;;;;;;;;;4218377;28;1181;-62
2022/01/03 12:47:03;;;;;;;;;;;;;;;;;;4219364;28;2296;-63
2022/01/03 12:49:23;;;;;;;;;;;;;;;;;;4218763;28;1632;-62
2022/01/03 12:51:44;;;;;;;;;;;;;;;;;;4218730;28;1188;-62
2022/01/03 12:54:07;;;;;;;;;;;;;;;;;;4220889;28;1551;-62
2022/01/03 12:56:27;;;;;;;;;;;;;;;;;;4222062;28;1006;-62
2022/01/03 12:58:47;;;;;;;;;;;;;;;;;;4219548;28;1099;-62
2022/01/03 13:01:10;;;;;;;;;;;;;;;;;;4221096;28;1144;-62
2022/01/03 13:03:31;;;;;;;;;;;;;;;;;;4221598;28;953;-63
2022/01/03 13:05:52;;;;;;;;;;;;;;;;;;4221790;28;1204;-62
2022/01/03 13:08:12;;;;;;;;;;;;;;;;;;4221556;28;973;-63
2022/01/03 13:10:33;;;;;;;;;;;;;;;;;;4221642;28;1432;-62
2022/01/03 13:12:53;;;;;;;;;;;;;;;;;;4220452;28;1329;-62
2022/01/03 13:15:13;;;;;;;;;;;;;;;;;;4202800;28;969;-62
2022/01/03 13:17:34;;;;;;;;;;;;;;;;;;4204425;28;1179;-61
2022/01/03 13:19:54;;;;;;;;;;;;;;;;;;4204097;28;963;-62
2022/01/03 13:22:15;;;;;;;;;;;;;;;;;;4205265;28;1982;-62
2022/01/03 13:24:36;;;;;;;;;;;;;;;;;;4219633;28;1000;-63
2022/01/03 13:26:56;;;;;;;;;;;;;;;;;;4220705;28;1913;-62
2022/01/03 13:29:17;;;;;;;;;;;;;;;;;;4218724;28;1716;-62
2022/01/03 13:31:37;;;;;;;;;;;;;;;;;;4213858;28;959;-62
2022/01/03 13:33:58;;;;;;;;;;;;;;;;;;4223128;28;1116;-63
2022/01/03 13:36:18;;;;;;;;;;;;;;;;;;4222935;28;1234;-62
2022/01/03 13:38:39;;;;;;;;;;;;;;;;;;4222936;28;977;-62
2022/01/03 13:40:59;;;;;;;;;;;;;;;;;;4223541;28;1497;-62
2022/01/03 13:43:21;;;;;;;;;;;;;;;;;;4223410;28;1145;-62
2022/01/03 13:50:58;;;;;;;;;;;;;;;;;;4223313;28;914;-63
2022/01/03 13:53:19;;;;;;;;;;;;;;;;;;4223015;28;976;-63
2022/01/03 13:55:41;;;;;;;;;;;;;;;;;;4222982;28;992;-64
2022/01/03 13:58:01;;;;;;;;;;;;;;;;;;4223229;28;949;-63
2022/01/03 14:00:22;;;;;;;;;;;;;;;;;;4223127;28;1226;-63
2022/01/03 14:02:42;;;;;;;;;;;;;;;;;;4222740;28;810;-64
2022/01/03 14:05:02;;;;;;;;;;;;;;;;;;4219849;28;1500;-64
2022/01/03 14:07:23;;;;;;;;;;;;;;;;;;4221054;28;1909;-63
2022/01/03 14:09:43;;;;;;;;;;;;;;;;;;4205024;28;927;-64
2022/01/03 14:12:04;;;;;;;;;;;;;;;;;;4205899;28;827;-64
2022/01/03 14:14:24;;;;;;;;;;;;;;;;;;4205636;28;1281;-64
2022/01/03 14:16:44;;;;;;;;;;;;;;;;;;4205122;28;1087;-63
2022/01/03 14:19:05;;;;;;;;;;;;;;;;;;4204956;28;1174;-63
2022/01/03 14:21:25;;;;;;;;;;;;;;;;;;4205758;28;818;-63
2022/01/03 14:23:45;;;;;;;;;;;;;;;;;;4205410;28;865;-64
2022/01/03 14:26:07;;;;;;;;;;;;;;;;;;4205625;28;1064;-64
2022/01/03 14:28:28;;;;;;;;;;;;;;;;;;4205815;28;1018;-64
2022/01/03 14:30:48;;;;;;;;;;;;;;;;;;4205287;28;1337;-64
2022/01/03 14:33:09;;;;;;;;;;;;;;;;;;4205580;28;1218;-64
2022/01/03 14:35:29;;;;;;;;;;;;;;;;;;4205255;28;1276;-63
2022/01/03 14:37:49;;;;;;;;;;;;;;;;;;4205086;28;1026;-64
2022/01/03 14:40:10;;;;;;;;;;;;;;;;;;4205625;28;931;-64
2022/01/03 14:42:31;;;;;;;;;;;;;;;;;;4205543;28;996;-63
2022/01/03 14:44:52;;;;;;;;;;;;;;;;;;4205447;28;972;-63
2022/01/03 14:47:12;;;;;;;;;;;;;;;;;;4204823;28;2000;-64
2022/01/03 14:49:33;;;;;;;;;;;;;;;;;;4208264;28;1183;-65
2022/01/03 14:51:53;;;;;;;;;;;;;;;;;;4205292;28;1024;-63
2022/01/03 14:54:13;;;;;;;;;;;;;;;;;;4204875;28;966;-64
2022/01/03 14:56:33;;;;;;;;;;;;;;;;;;4205431;28;841;-63
2022/01/03 14:58:54;;;;;;;;;;;;;;;;;;4205304;28;1084;-64
2022/01/03 15:01:14;;;;;;;;;;;;;;;;;;4204834;28;1053;-64
2022/01/03 15:03:35;;;;;;;;;;;;;;;;;;4205005;28;931;-65
2022/01/03 15:05:55;;;;;;;;;;;;;;;;;;4215106;28;1206;-63
2022/01/03 15:08:15;;;;;;;;;;;;;;;;;;4220736;28;1905;-64
2022/01/03 15:10:35;;;;;;;;;;;;;;;;;;4221806;28;1038;-65
2022/01/03 15:12:56;;;;;;;;;;;;;;;;;;4222271;28;1121;-63
2022/01/03 15:15:16;;;;;;;;;;;;;;;;;;4221912;28;908;-64
2022/01/03 15:17:36;;;;;;;;;;;;;;;;;;4222226;28;1068;-64
2022/01/03 15:19:57;;;;;;;;;;;;;;;;;;4212402;28;2388;-64
2022/01/03 15:22:17;;;;;;;;;;;;;;;;;;4205318;28;1127;-64
2022/01/03 15:24:37;;;;;;;;;;;;;;;;;;4218625;28;1698;-64
2022/01/03 15:26:58;;;;;;;;;;;;;;;;;;4222048;28;1993;-64
2022/01/03 15:29:18;;;;;;;;;;;;;;;;;;4221761;28;904;-64
2022/01/03 15:31:38;;;;;;;;;;;;;;;;;;4221319;28;1499;-65
2022/01/03 15:33:59;;;;;;;;;;;;;;;;;;4221224;28;1475;-64
2022/01/03 15:36:19;;;;;;;;;;;;;;;;;;4221762;28;1165;-64
2022/01/03 15:38:40;;;;;;;;;;;;;;;;;;4204766;28;1378;-63
2022/01/03 15:41:00;;;;;;;;;;;;;;;;;;4204534;28;1291;-63
2022/01/03 15:43:20;;;;;;;;;;;;;;;;;;4205122;28;958;-63
2022/01/03 15:45:41;;;;;;;;;;;;;;;;;;4204415;28;1020;-63
2022/01/03 15:48:01;;;;;;;;;;;;;;;;;;4204249;28;1905;-63
2022/01/03 15:50:21;;;;;;;;;;;;;;;;;;4205066;28;1547;-63
2022/01/03 15:52:41;;;;;;;;;;;;;;;;;;4205087;28;947;-63
2022/01/03 15:55:01;;;;;;;;;;;;;;;;;;4204997;28;826;-63
2022/01/03 15:57:22;;;;;;;;;;;;;;;;;;4204333;28;1008;-63
2022/01/03 15:59:42;;;;;;;;;;;;;;;;;;4204794;28;928;-64
2022/01/03 16:02:02;;;;;;;;;;;;;;;;;;4204282;28;999;-63
2022/01/03 16:04:23;;;;;;;;;;;;;;;;;;4215395;28;1280;-62
2022/01/03 16:06:43;;;;;;;;;;;;;;;;;;4221190;28;1016;-64
2022/01/03 16:09:03;;;;;;;;;;;;;;;;;;4221608;28;1973;-62
2022/01/03 16:11:25;;;;;;;;;;;;;;;;;;4221700;28;915;-63
2022/01/03 16:13:45;;;;;;;;;;;;;;;;;;4221111;28;1433;-63
2022/01/03 16:16:06;;;;;;;;;;;;;;;;;;4221552;28;1030;-63
2022/01/03 16:18:26;;;;;;;;;;;;;;;;;;4221142;28;1283;-63
2022/01/03 16:20:46;;;;;;;;;;;;;;;;;;4221460;28;1051;-63
2022/01/03 16:23:06;;;;;;;;;;;;;;;;;;4221520;28;859;-63
2022/01/03 16:25:27;;;;;;;;;;;;;;;;;;4221469;28;1054;-63
2022/01/03 16:27:47;;;;;;;;;;;;;;;;;;4221050;28;1910;-63
2022/01/03 16:30:08;;;;;;;;;;;;;;;;;;4223977;28;1385;-64
2022/01/03 16:32:29;;;;;;;;;;;;;;;;;;4223962;28;1070;-62
2022/01/03 16:34:49;;;;;;;;;;;;;;;;;;4223539;28;1309;-63
2022/01/03 16:37:10;;;;;;;;;;;;;;;;;;4224291;28;919;-63
2022/01/03 16:39:30;;;;;;;;;;;;;;;;;;4224163;28;941;-63
2022/01/03 16:41:50;;;;;;;;;;;;;;;;;;4223839;28;1037;-63
2022/01/03 16:44:11;;;;;;;;;;;;;;;;;;4224221;28;942;-63
2022/01/03 16:46:31;;;;;;;;;;;;;;;;;;4223851;28;991;-63
2022/01/03 16:48:52;;;;;;;;;;;;;;;;;;4223908;28;1984;-63
2022/01/03 16:51:12;;;;;;;;;;;;;;;;;;4224000;28;1009;-62